Main page
METAR-TAF:

METAR-TAF

Airports :

Ralph Wenz Field

Pinedale, Wyoming, United States

latitude: 42-47-43N, longitude: 109-48-25W, elevation: 7085 ft

Current weather observation

The report was made 18 minutes ago, at 13:15 UTC
Wind 6 mph from the West
Temperature 19°F
Humidity 79%
Pressure 30.31 in. Hg
Visibility: 10 miles
Clear sky

METAR: KPNA 211315Z AUTO 27005KT 10SM CLR M07/M10 A3031 RMK AO2

Time: 07:33 (13:33 UTC)

Forecast

The report was made 2 hours and 13 minutes ago, at 11:20 UTC
Forecast valid from 21 at 12 UTC to 22 at 12 UTC
Wind 7 mph from variable directions
Visibility: 6 miles
Few clouds at a height of 20000 ft
From 21 at 2100 UTC
Wind 17 mph from the West with gusts up to 29 mph
Visibility: 6 miles
Scattered clouds at a height of 15000 ft
From 22 at 0200 UTC
Wind 12 mph from the Northwest
Visibility: 6 miles
Broken clouds at a height of 10000 ft

TAF: KPNA 211120Z 2112/2212 VRB06KT P6SM FEW200 FM212100 28015G25KT P6SM SCT150 FM220200 32010KT P6SM BKN100

Weather observations and forecasts of more than 4000 airports (METAR and TAF reports).

The available stations are represented by yellow and red dots on the map.

Hover mouse over dot to see the name of the station.

Then click to see weather observations and forecasts.

To change the map : click on the green buttons with a black cross to zoom in, on the green button with a dash to zoom out, or on the green arrows for adjacent maps.


METAR-TAF: